Time;durP1;ratioP1;P1;durP2;ratioP2;P2;SDS_P1;SDS_P2;PMS_P1;PMS_P2;Temp;Humidity;BMP_temperature;BMP_pressure;BME280_temperature;BME280_humidity;BME280_pressure;Samples;Min_cycle;Max_cycle;Signal;HPM_P1;HPM_P2
2023/10/09 00:01:54;;;;;;;13.20;2.70;;;;;;;7.72;83.50;101133.23;110603;1272;22172;-60
2023/10/09 00:04:25;;;;;;;11.90;2.70;;;;;;;7.72;83.53;101150.45;110653;1263;22375;-58
2023/10/09 00:06:59;;;;;;;11.10;2.50;;;;;;;7.72;83.45;101149.97;110601;1273;22228;-60
2023/10/09 00:09:40;;;;;;;13.00;2.30;;;;;;;7.72;83.55;101146.73;110584;1272;22139;-60
2023/10/09 00:12:11;;;;;;;11.20;2.60;;;;;;;7.70;83.36;101136.37;110587;1273;23452;-60
2023/10/09 00:14:47;;;;;;;14.20;3.10;;;;;;;7.68;83.27;101128.95;110592;1273;22210;-59
2023/10/09 00:17:19;;;;;;;10.80;2.20;;;;;;;7.64;83.05;101132.32;110659;1272;22614;-62
2023/10/09 00:19:51;;;;;;;11.80;2.30;;;;;;;7.60;83.11;101123.06;110608;1273;22229;-58
2023/10/09 00:22:28;;;;;;;9.80;1.90;;;;;;;7.57;83.12;101112.96;110581;1273;22122;-58
2023/10/09 00:25:12;;;;;;;13.30;2.50;;;;;;;7.54;83.33;101101.08;110564;1269;22188;-60
2023/10/09 00:27:46;;;;;;;18.00;3.20;;;;;;;7.50;83.55;101103.16;110653;1272;22200;-58
2023/10/09 00:30:19;;;;;;;14.30;2.70;;;;;;;7.48;83.53;101095.44;110804;1272;22154;-59
2023/10/09 00:32:59;;;;;;;10.30;2.50;;;;;;;7.46;83.74;101088.20;110773;1272;22174;-58
2023/10/09 00:35:46;;;;;;;12.90;3.00;;;;;;;7.42;83.78;101085.54;110697;1272;22277;-60
2023/10/09 00:38:23;;;;;;;12.50;2.40;;;;;;;7.39;83.76;101090.37;110807;1261;22118;-58
2023/10/09 00:41:04;;;;;;;11.60;2.80;;;;;;;7.36;83.70;101092.18;110700;1272;22143;-61
2023/10/09 00:43:36;;;;;;;11.70;3.50;;;;;;;7.33;83.87;101090.09;110703;1272;22251;-58
2023/10/09 00:46:23;;;;;;;13.50;4.00;;;;;;;7.31;84.12;101091.10;110646;1272;22263;-60
2023/10/09 00:48:57;;;;;;;11.30;3.20;;;;;;;7.31;84.25;101102.08;110640;1270;22171;-58
2023/10/09 00:51:34;;;;;;;11.90;3.00;;;;;;;7.30;84.59;101103.26;110595;1273;22342;-58
2023/10/09 00:54:14;;;;;;;12.10;2.60;;;;;;;7.32;84.63;101107.98;110749;1272;22249;-61
2023/10/09 00:56:57;;;;;;;12.00;2.80;;;;;;;7.34;84.85;101102.14;110578;1273;22134;-61
2023/10/09 00:59:28;;;;;;;11.60;2.30;;;;;;;7.34;85.08;101096.73;110602;1273;22593;-61
2023/10/09 01:02:04;;;;;;;10.60;2.40;;;;;;;7.34;85.06;101093.64;110631;1273;22258;-61
2023/10/09 01:04:40;;;;;;;10.20;1.90;;;;;;;7.36;85.15;101087.52;110495;1273;22274;-60
2023/10/09 01:07:15;;;;;;;11.30;2.60;;;;;;;7.37;85.32;101074.23;110608;1273;22151;-58
2023/10/09 01:09:46;;;;;;;10.20;3.00;;;;;;;7.40;85.47;101067.17;110650;1272;22201;-59
2023/10/09 01:12:17;;;;;;;10.00;2.90;;;;;;;7.41;85.61;101058.17;110733;1272;22128;-56
2023/10/09 01:14:55;;;;;;;10.60;2.10;;;;;;;7.43;85.69;101062.09;110582;1273;22295;-57
2023/10/09 01:17:36;;;;;;;11.60;2.00;;;;;;;7.43;85.90;101063.83;110701;1267;22421;-57
2023/10/09 01:20:16;;;;;;;13.40;2.90;;;;;;;7.44;85.74;101059.92;110580;1273;22194;-59
2023/10/09 01:22:50;;;;;;;10.90;2.60;;;;;;;7.45;85.84;101057.44;110550;1273;22160;-58
2023/10/09 01:25:21;;;;;;;10.60;2.60;;;;;;;7.46;86.04;101053.75;110698;1272;22986;-58
2023/10/09 01:27:52;;;;;;;13.20;2.90;;;;;;;7.47;86.12;101048.80;110736;1272;22214;-58
2023/10/09 01:30:23;;;;;;;11.20;2.50;;;;;;;7.48;86.21;101048.05;110767;1272;22190;-58
2023/10/09 01:32:56;;;;;;;9.80;2.90;;;;;;;7.49;86.24;101035.80;110748;1272;22271;-58
2023/10/09 01:35:32;;;;;;;12.90;2.70;;;;;;;7.50;86.34;101039.02;110579;1273;22196;-57
2023/10/09 01:38:10;;;;;;;12.50;2.80;;;;;;;7.51;86.21;101046.91;110617;1261;22254;-58
2023/10/09 01:40:41;;;;;;;13.60;3.60;;;;;;;7.52;86.24;101033.39;110577;1273;22197;-59
2023/10/09 01:43:13;;;;;;;12.00;3.10;;;;;;;7.54;86.37;101035.48;110592;1260;22470;-59
2023/10/09 01:45:46;;;;;;;11.20;2.90;;;;;;;7.55;86.43;101045.48;110594;1272;22249;-58
2023/10/09 01:48:23;;;;;;;14.50;3.50;;;;;;;7.56;86.35;101043.78;110699;1272;22254;-56
2023/10/09 01:50:54;;;;;;;17.50;2.90;;;;;;;7.57;86.38;101049.64;110679;1256;22186;-57
2023/10/09 01:53:33;;;;;;;16.00;2.80;;;;;;;7.57;86.38;101044.40;110593;1273;22294;-58
2023/10/09 01:56:14;;;;;;;14.80;2.60;;;;;;;7.58;86.32;101033.32;110581;1273;23004;-59
2023/10/09 01:58:46;;;;;;;13.50;3.20;;;;;;;7.59;86.61;101032.67;110572;1272;22185;-58
2023/10/09 02:01:17;;;;;;;13.80;3.50;;;;;;;7.61;86.84;101025.87;110632;1272;22274;-58
2023/10/09 02:03:51;;;;;;;16.20;3.90;;;;;;;7.61;86.94;101021.64;110541;1273;22956;-58
2023/10/09 02:06:26;;;;;;;13.20;3.40;;;;;;;7.62;87.06;101019.24;110582;1272;22191;-56
2023/10/09 02:08:57;;;;;;;13.10;3.30;;;;;;;7.63;87.09;101010.70;110603;1273;23053;-58
2023/10/09 02:11:41;;;;;;;13.30;3.00;;;;;;;7.64;87.26;101005.52;110614;1272;22326;-58
2023/10/09 02:14:20;;;;;;;12.70;3.00;;;;;;;7.67;87.44;101011.95;110677;1272;22182;-57
2023/10/09 02:17:07;;;;;;;12.10;3.00;;;;;;;7.69;87.46;101000.91;110679;1272;22344;-58
2023/10/09 02:19:40;;;;;;;13.60;2.80;;;;;;;7.72;87.47;100984.32;110777;1272;22383;-58
2023/10/09 02:22:13;;;;;;;13.30;3.00;;;;;;;7.74;87.57;100974.29;110783;1272;22207;-55
2023/10/09 02:24:57;;;;;;;9.80;2.40;;;;;;;7.75;87.58;100962.41;110684;1272;22317;-56
2023/10/09 02:27:45;;;;;;;12.60;3.00;;;;;;;7.78;87.68;100952.72;110591;1272;22396;-59
2023/10/09 02:30:19;;;;;;;15.60;4.30;;;;;;;7.81;87.65;100949.37;110632;1272;22273;-58
2023/10/09 02:32:53;;;;;;;15.70;3.00;;;;;;;7.84;87.77;100937.36;110564;1273;22175;-57
2023/10/09 02:35:31;;;;;;;9.80;2.10;;;;;;;7.86;87.70;100939.11;110521;1273;23069;-58
2023/10/09 02:38:04;;;;;;;11.50;2.60;;;;;;;7.89;87.71;100936.55;110603;1273;22185;-57
2023/10/09 02:41:04;;;;;;;13.50;2.60;;;;;;;7.91;87.67;100922.81;110594;1272;22183;-58
2023/10/09 02:43:26;;;;;;;10.80;2.30;;;;;;;7.95;87.76;100919.85;110648;1272;22320;-58
2023/10/09 02:45:57;;;;;;;17.10;2.50;;;;;;;7.96;87.68;100915.86;110647;1272;23260;-58
2023/10/09 02:48:33;;;;;;;12.60;2.60;;;;;;;7.97;87.81;100917.23;110608;1272;22334;-59
2023/10/09 02:51:05;;;;;;;13.40;2.30;;;;;;;7.98;87.87;100909.89;110634;1272;22181;-57
2023/10/09 02:53:36;;;;;;;10.60;2.20;;;;;;;7.99;87.78;100902.73;110676;1272;22373;-58
2023/10/09 02:56:12;;;;;;;9.10;2.00;;;;;;;7.97;87.77;100896.98;110663;1272;22208;-59
2023/10/09 02:58:43;;;;;;;8.50;1.80;;;;;;;7.96;87.80;100893.45;110593;1269;22207;-58
2023/10/09 03:01:14;;;;;;;7.30;1.90;;;;;;;7.94;87.75;100896.84;110606;1273;22371;-58
2023/10/09 03:03:47;;;;;;;15.60;2.40;;;;;;;7.93;87.90;100896.62;110594;1256;22224;-58
2023/10/09 03:06:24;;;;;;;11.30;2.10;;;;;;;7.95;87.92;100900.77;110764;1272;22236;-58
2023/10/09 03:08:55;;;;;;;12.10;1.80;;;;;;;7.97;87.86;100903.17;110661;1272;22192;-59
2023/10/09 03:11:27;;;;;;;12.80;1.80;;;;;;;7.98;87.83;100906.89;110772;1272;22341;-59
2023/10/09 03:13:58;;;;;;;9.90;2.00;;;;;;;7.99;87.89;100901.91;110709;1272;23227;-58
2023/10/09 03:16:29;;;;;;;8.50;1.80;;;;;;;8.01;87.88;100891.20;110675;1272;22146;-59
2023/10/09 03:19:00;;;;;;;7.00;1.40;;;;;;;8.02;87.89;100891.64;110801;1272;22192;-58
2023/10/09 03:21:31;;;;;;;11.20;2.10;;;;;;;8.02;87.83;100891.00;110639;1272;23236;-60
2023/10/09 03:24:04;;;;;;;11.70;1.60;;;;;;;8.05;87.67;100898.88;110768;1272;22203;-61
2023/10/09 03:26:35;;;;;;;14.30;1.70;;;;;;;8.06;87.70;100898.98;110530;1273;22305;-60
2023/10/09 03:29:09;;;;;;;7.60;1.40;;;;;;;8.09;87.51;100899.86;110722;1272;22984;-61
2023/10/09 03:31:43;;;;;;;10.40;1.70;;;;;;;8.12;87.51;100892.54;110537;1272;22314;-59
2023/10/09 03:34:14;;;;;;;9.10;1.50;;;;;;;8.14;87.50;100886.74;110617;1273;22411;-60
2023/10/09 03:36:51;;;;;;;7.00;1.40;;;;;;;8.15;87.55;100885.92;110663;1272;23499;-60
2023/10/09 03:39:25;;;;;;;6.60;1.50;;;;;;;8.16;87.50;100884.20;110551;1272;22201;-59
2023/10/09 03:41:58;;;;;;;10.20;1.40;;;;;;;8.16;87.46;100875.77;110661;1272;22182;-59
2023/10/09 03:44:29;;;;;;;9.20;1.20;;;;;;;8.15;87.57;100871.77;110703;1272;22158;-61
2023/10/09 03:47:00;;;;;;;6.80;1.40;;;;;;;8.15;87.63;100864.05;110578;1273;22185;-59
2023/10/09 03:49:31;;;;;;;6.60;1.10;;;;;;;8.16;87.63;100853.14;110589;1273;22385;-56
2023/10/09 03:52:02;;;;;;;8.30;1.20;;;;;;;8.15;87.82;100848.73;110583;1273;22162;-59
2023/10/09 03:54:35;;;;;;;7.90;1.10;;;;;;;8.15;88.10;100836.42;110673;1272;22967;-60
2023/10/09 03:57:06;;;;;;;6.90;1.60;;;;;;;8.14;88.21;100826.52;110688;1272;22185;-60
2023/10/09 03:59:37;;;;;;;7.20;1.30;;;;;;;8.14;88.26;100824.52;110716;1269;23194;-57
2023/10/09 04:02:08;;;;;;;8.10;1.30;;;;;;;8.13;88.36;100815.36;110742;1272;22203;-56
2023/10/09 04:04:45;;;;;;;7.40;1.10;;;;;;;8.10;88.37;100808.21;110745;1272;23053;-59
2023/10/09 04:07:16;;;;;;;7.40;1.30;;;;;;;8.08;88.60;100806.60;110715;1272;22337;-57
2023/10/09 04:09:51;;;;;;;7.30;1.30;;;;;;;8.07;88.58;100793.91;110550;1269;22184;-57
2023/10/09 04:12:24;;;;;;;5.70;1.00;;;;;;;8.03;88.56;100789.30;110677;1272;22191;-58
2023/10/09 04:14:57;;;;;;;6.00;1.20;;;;;;;8.00;88.80;100785.75;110699;1272;22236;-58
2023/10/09 04:17:34;;;;;;;6.00;1.10;;;;;;;7.97;89.17;100776.95;110570;1273;22327;-58
2023/10/09 04:20:51;;;;;;;7.50;1.00;;;;;;;7.96;89.24;100764.05;110580;1273;22163;-57
2023/10/09 04:23:33;;;;;;;6.70;1.10;;;;;;;7.95;89.30;100764.88;110521;1265;22489;-60
2023/10/09 04:26:14;;;;;;;6.40;1.40;;;;;;;7.93;89.30;100764.95;110592;1272;22367;-59
2023/10/09 04:28:43;;;;;;;;;;;;;;;7.91;89.46;100759.43;110553;1266;22458;-59
2023/10/09 04:31:17;;;;;;;9.20;1.00;;;;;;;7.88;89.48;100751.13;110531;1266;22325;-60
2023/10/09 04:34:21;;;;;;;5.80;1.10;;;;;;;7.86;89.79;100751.05;110547;1266;22394;-60
2023/10/09 04:36:49;;;;;;;5.90;1.10;;;;;;;7.84;89.84;100753.24;110514;1266;22416;-56
2023/10/09 04:39:46;;;;;;;4.80;1.00;;;;;;;7.83;89.97;100745.26;110594;1266;23307;-60
2023/10/09 04:42:26;;;;;;;6.10;0.90;;;;;;;7.83;90.01;100742.39;110520;1266;22315;-60
2023/10/09 04:47:57;;;;;;;7.00;1.20;;;;;;;7.83;90.23;100751.38;110161;1270;23082;-55
2023/10/09 04:53:28;;;;;;;6.20;1.00;;;;;;;7.82;90.17;100765.86;110159;1277;22328;-56
2023/10/09 04:56:04;;;;;;;5.40;0.90;;;;;;;7.84;90.41;100782.07;110198;1272;22316;-55
2023/10/09 04:58:39;;;;;;;7.70;1.00;;;;;;;7.87;90.39;100797.79;110174;1273;22171;-57
2023/10/09 05:01:16;;;;;;;5.30;1.00;;;;;;;7.89;90.41;100804.16;110080;1278;22262;-56
2023/10/09 05:03:56;;;;;;;7.00;1.10;;;;;;;7.90;90.26;100804.52;110217;1278;22196;-57
2023/10/09 05:06:54;;;;;;;;;;;;;;;7.92;90.63;100797.38;110044;1272;22452;-57
2023/10/09 05:09:51;;;;;;;9.30;1.30;;;;;;;7.93;90.81;100785.74;110158;1270;22297;-56
2023/10/09 05:12:17;;;;;;;7.60;1.10;;;;;;;7.91;90.97;100791.85;110204;1278;22372;-56
2023/10/09 05:15:07;;;;;;;6.20;0.90;;;;;;;7.92;91.07;100791.90;110179;1278;22300;-59
2023/10/09 05:17:39;;;;;;;5.80;1.10;;;;;;;7.94;91.35;100786.44;110193;1270;22249;-57
2023/10/09 05:23:23;;;;;;;7.50;0.80;;;;;;;7.94;91.43;100777.79;109876;1282;22211;-56
2023/10/09 05:25:58;;;;;;;8.70;0.90;;;;;;;7.93;91.52;100779.40;110160;1270;22305;-56
2023/10/09 05:28:48;;;;;;;5.80;0.90;;;;;;;7.92;91.50;100774.43;110310;1275;23095;-58
2023/10/09 05:34:06;;;;;;;5.50;1.00;;;;;;;7.90;91.65;100768.23;110298;1270;22343;-55
2023/10/09 05:36:39;;;;;;;8.60;0.90;;;;;;;7.89;91.85;100765.86;110292;1268;22930;-59
2023/10/09 05:39:40;;;;;;;7.10;0.70;;;;;;;7.88;91.88;100766.76;110316;1276;22601;-58
2023/10/09 05:42:17;;;;;;;5.30;0.80;;;;;;;7.85;91.88;100762.58;110284;1272;23124;-57
2023/10/09 05:47:53;;;;;;;9.60;1.30;;;;;;;7.85;92.12;100743.44;110342;1272;22345;-57
2023/10/09 05:50:34;;;;;;;5.20;0.90;;;;;;;7.84;92.25;100750.31;110277;1277;22215;-58
2023/10/09 05:53:17;;;;;;;4.60;1.00;;;;;;;7.83;92.51;100745.64;110314;1271;22216;-61
2023/10/09 06:04:17;;;;;;;8.30;1.30;;;;;;;7.86;92.92;100724.20;110615;1272;22147;-58
2023/10/09 06:06:56;;;;;;;7.60;1.00;;;;;;;7.83;93.04;100719.20;110600;1272;22140;-58
2023/10/09 06:09:49;;;;;;;8.60;1.20;;;;;;;7.83;93.19;100709.38;110721;1272;22246;-57
2023/10/09 06:15:51;;;;;;;;;;;;;;;7.84;93.40;100709.39;110671;1272;22474;-57
2023/10/09 06:18:33;;;;;;;6.50;1.20;;;;;;;7.84;93.58;100711.61;110696;1267;22149;-57
2023/10/09 06:21:39;;;;;;;8.00;1.30;;;;;;;7.84;93.67;100707.90;110580;1266;22375;-58
2023/10/09 06:24:14;;;;;;;11.40;1.30;;;;;;;7.85;93.84;100695.95;110657;1266;22328;-57
2023/10/09 06:26:57;;;;;;;5.90;1.10;;;;;;;7.86;94.03;100691.77;110697;1262;22169;-58
2023/10/09 06:29:35;;;;;;;6.70;1.30;;;;;;;7.88;94.02;100684.95;110703;1260;23152;-57
2023/10/09 06:32:34;;;;;;;5.40;1.10;;;;;;;7.88;94.24;100666.28;110635;1266;22319;-59
2023/10/09 06:35:18;;;;;;;5.90;1.00;;;;;;;7.93;94.25;100661.67;110583;1273;22372;-54
2023/10/09 06:43:28;;;;;;;7.40;1.10;;;;;;;8.06;94.06;100657.31;110601;1266;22355;-57
2023/10/09 06:46:37;;;;;;;7.70;1.10;;;;;;;8.10;94.36;100650.90;110637;1260;22194;-58
2023/10/09 06:48:57;;;;;;;5.00;1.00;;;;;;;8.14;94.03;100641.93;110569;1260;22863;-55
2023/10/09 06:51:43;;;;;;;10.90;1.40;;;;;;;8.16;94.10;100628.71;110707;1272;22360;-55
2023/10/09 06:54:16;;;;;;;5.30;1.10;;;;;;;8.16;94.04;100622.17;110707;1272;23046;-55
2023/10/09 07:00:51;;;;;;;6.50;1.10;;;;;;;8.21;94.31;100601.80;110263;1277;23085;-56
2023/10/09 07:02:45;;;;;;;6.40;1.00;;;;;;;8.22;94.54;100603.44;110322;1277;22597;-57
2023/10/09 07:05:17;;;;;;;5.10;0.80;;;;;;;8.18;94.60;100603.39;110220;1277;22300;-57
2023/10/09 07:07:54;;;;;;;7.30;1.60;;;;;;;8.14;94.56;100602.84;110192;1278;22210;-54
2023/10/09 07:10:32;;;;;;;7.00;1.80;;;;;;;8.14;94.85;100600.71;110236;1270;22296;-57
2023/10/09 07:13:04;;;;;;;8.40;1.10;;;;;;;8.15;94.94;100602.73;110193;1266;22794;-56
2023/10/09 07:18:25;;;;;;;9.70;1.40;;;;;;;8.18;95.14;100607.20;110290;1277;22992;-59
2023/10/09 07:21:11;;;;;;;3.90;1.10;;;;;;;8.21;95.32;100601.24;110361;1276;22171;-53
2023/10/09 07:23:48;;;;;;;6.20;1.40;;;;;;;8.21;95.38;100599.95;110257;1277;22296;-56
2023/10/09 07:26:23;;;;;;;6.60;1.50;;;;;;;8.23;95.61;100600.38;110254;1277;22198;-57
2023/10/09 07:29:01;;;;;;;5.60;1.60;;;;;;;8.27;95.72;100587.03;110284;1272;22191;-55
2023/10/09 07:31:39;;;;;;;7.00;1.50;;;;;;;8.33;95.87;100580.85;110226;1277;22349;-55
2023/10/09 07:36:56;;;;;;;7.00;1.30;;;;;;;8.43;96.16;100576.81;110393;1272;22157;-59
2023/10/09 07:39:34;;;;;;;9.30;1.60;;;;;;;8.47;96.40;100581.83;110718;1272;22142;-57
2023/10/09 07:42:19;;;;;;;8.50;1.30;;;;;;;8.50;96.24;100580.98;110718;1272;22146;-59
2023/10/09 07:44:54;;;;;;;7.70;1.70;;;;;;;8.52;96.26;100580.77;110679;1272;22450;-59
2023/10/09 07:47:45;;;;;;;8.60;1.60;;;;;;;8.55;96.31;100582.23;110745;1272;22221;-59
2023/10/09 07:50:21;;;;;;;7.60;1.20;;;;;;;8.58;96.46;100583.86;110625;1272;23221;-59
2023/10/09 07:52:52;;;;;;;7.50;1.30;;;;;;;8.61;96.21;100585.81;110666;1272;22654;-56
2023/10/09 07:55:39;;;;;;;7.90;1.40;;;;;;;8.64;96.17;100581.37;110691;1266;22411;-57
2023/10/09 07:58:11;;;;;;;9.00;1.30;;;;;;;8.68;96.12;100578.83;110605;1273;22139;-56
2023/10/09 08:03:32;;;;;;;5.20;1.00;;;;;;;8.74;96.31;100571.77;110707;1272;22271;-59
2023/10/09 08:06:37;;;;;;;5.20;1.10;;;;;;;8.75;96.27;100573.41;110729;1272;22908;-60
2023/10/09 08:12:38;;;;;;;5.30;0.90;;;;;;;8.82;96.39;100562.45;110731;1261;22892;-60
2023/10/09 08:15:26;;;;;;;4.70;1.00;;;;;;;8.84;96.30;100572.16;110657;1272;22180;-61
2023/10/09 08:18:03;;;;;;;5.80;1.10;;;;;;;8.86;96.39;100567.77;110745;1272;22652;-57
2023/10/09 08:20:51;;;;;;;6.30;0.80;;;;;;;8.92;96.68;100565.70;110741;1272;23156;-58
2023/10/09 08:23:28;;;;;;;8.40;1.60;;;;;;;8.92;96.25;100552.73;110630;1273;22208;-58
2023/10/09 08:26:12;;;;;;;8.20;1.30;;;;;;;8.94;96.23;100539.38;110598;1269;22141;-60
2023/10/09 08:28:45;;;;;;;5.90;1.00;;;;;;;8.97;96.60;100529.85;110690;1266;22212;-58
2023/10/09 08:31:34;;;;;;;4.50;0.80;;;;;;;9.02;96.96;100533.33;110624;1272;22155;-59
2023/10/09 08:34:09;;;;;;;6.70;0.90;;;;;;;9.04;96.58;100536.50;110691;1269;22853;-58
2023/10/09 08:36:43;;;;;;;5.20;1.00;;;;;;;9.06;96.36;100539.21;110694;1272;22369;-60
2023/10/09 08:39:17;;;;;;;9.60;1.30;;;;;;;9.06;96.03;100541.27;110740;1269;22198;-58
2023/10/09 08:41:49;;;;;;;5.50;1.10;;;;;;;9.09;95.97;100541.20;110622;1267;22142;-58
2023/10/09 08:44:25;;;;;;;6.90;1.20;;;;;;;9.11;96.06;100534.54;110636;1269;22860;-59
2023/10/09 08:46:57;;;;;;;8.60;1.20;;;;;;;9.13;96.08;100531.17;110594;1273;22364;-58
2023/10/09 08:49:28;;;;;;;8.90;1.40;;;;;;;9.15;95.92;100530.47;110666;1272;22184;-59
2023/10/09 08:52:03;;;;;;;8.40;1.00;;;;;;;9.18;95.65;100525.55;110658;1272;22140;-59
2023/10/09 08:54:34;;;;;;;5.80;1.20;;;;;;;9.16;95.20;100522.55;110708;1272;22345;-58
2023/10/09 08:57:09;;;;;;;5.50;0.90;;;;;;;9.16;95.30;100519.92;110692;1272;22171;-58
2023/10/09 08:59:44;;;;;;;5.40;0.80;;;;;;;9.16;95.00;100522.52;110675;1272;22325;-59
2023/10/09 09:02:16;;;;;;;5.50;0.90;;;;;;;9.15;95.34;100518.52;110676;1272;22967;-60
2023/10/09 09:04:50;;;;;;;3.40;0.70;;;;;;;9.17;95.23;100521.37;110690;1272;22179;-57
2023/10/09 09:07:31;;;;;;;2.80;0.60;;;;;;;9.17;95.12;100528.70;110693;1269;22197;-59
2023/10/09 09:10:17;;;;;;;4.10;0.90;;;;;;;9.20;94.87;100535.27;110656;1270;22154;-56
2023/10/09 09:13:00;;;;;;;4.10;0.70;;;;;;;9.20;94.74;100547.20;110678;1272;22258;-58
2023/10/09 09:15:32;;;;;;;4.30;0.80;;;;;;;9.19;94.67;100547.53;110652;1272;22767;-58
2023/10/09 09:18:10;;;;;;;4.70;0.80;;;;;;;9.20;94.41;100539.17;110715;1272;22581;-60
2023/10/09 09:20:45;;;;;;;4.70;0.60;;;;;;;9.18;94.11;100539.17;110664;1272;22206;-59
2023/10/09 09:23:16;;;;;;;5.80;0.80;;;;;;;9.13;93.64;100548.45;110691;1272;22152;-56
2023/10/09 09:25:59;;;;;;;6.70;1.20;;;;;;;9.06;93.63;100549.45;110640;1273;22339;-60
2023/10/09 09:28:38;;;;;;;6.10;1.10;;;;;;;9.01;94.12;100552.20;110654;1272;22308;-60
2023/10/09 09:31:15;;;;;;;6.20;0.90;;;;;;;9.03;94.36;100546.33;110685;1272;22278;-59
2023/10/09 09:33:48;;;;;;;5.00;1.00;;;;;;;9.06;94.35;100540.80;110688;1272;22859;-59
2023/10/09 09:36:19;;;;;;;8.60;1.20;;;;;;;9.07;94.42;100536.46;110677;1269;22144;-58
2023/10/09 09:38:50;;;;;;;21.40;5.20;;;;;;;9.04;94.15;100539.27;110606;1273;22880;-58
2023/10/09 09:41:25;;;;;;;15.50;2.60;;;;;;;8.98;93.96;100543.09;110684;1269;22260;-60
2023/10/09 09:44:00;;;;;;;6.70;1.50;;;;;;;8.96;94.38;100541.73;110612;1272;23121;-59
2023/10/09 09:46:33;;;;;;;8.00;1.50;;;;;;;8.94;94.47;100537.21;110682;1265;22398;-59
2023/10/09 09:49:16;;;;;;;10.40;1.30;;;;;;;8.95;94.47;100531.17;110699;1272;22249;-59
2023/10/09 09:51:47;;;;;;;7.10;1.20;;;;;;;8.95;94.29;100523.08;110638;1272;22180;-60
2023/10/09 09:54:22;;;;;;;10.90;2.20;;;;;;;8.96;94.49;100525.11;110762;1272;22202;-59
2023/10/09 09:56:55;;;;;;;13.00;3.00;;;;;;;8.94;94.04;100534.02;110735;1272;22209;-59
2023/10/09 09:59:30;;;;;;;9.10;1.40;;;;;;;8.93;94.27;100534.70;110669;1268;22199;-58
2023/10/09 10:02:06;;;;;;;8.30;2.40;;;;;;;8.92;94.26;100535.73;110745;1272;22309;-60
2023/10/09 10:04:40;;;;;;;11.50;2.30;;;;;;;8.93;94.85;100524.98;110627;1272;22204;-61
2023/10/09 10:07:16;;;;;;;4.90;1.20;;;;;;;8.96;94.66;100514.46;110737;1272;22082;-61
2023/10/09 10:09:48;;;;;;;6.90;1.20;;;;;;;8.92;94.50;100504.85;110644;1267;22413;-60
2023/10/09 10:13:01;;;;;;;4.20;0.80;;;;;;;8.89;94.44;100494.68;110662;1272;22341;-61
2023/10/09 10:16:11;;;;;;;3.90;0.90;;;;;;;8.86;94.22;100490.36;110680;1272;23107;-58
2023/10/09 10:19:06;;;;;;;5.90;0.90;;;;;;;8.85;94.34;100484.14;110606;1273;22164;-59
2023/10/09 10:21:41;;;;;;;10.40;2.00;;;;;;;8.80;94.16;100484.49;110711;1269;23067;-60
2023/10/09 10:24:57;;;;;;;7.00;1.80;;;;;;;8.78;94.37;100478.15;110636;1269;22138;-60
2023/10/09 10:27:31;;;;;;;5.20;0.90;;;;;;;8.78;94.68;100478.54;110642;1272;22219;-59
2023/10/09 10:30:37;;;;;;;7.00;1.10;;;;;;;8.81;94.84;100483.76;110662;1272;22173;-60
2023/10/09 10:33:15;;;;;;;8.60;1.20;;;;;;;8.85;94.97;100490.89;110685;1272;22161;-58
2023/10/09 10:35:46;;;;;;;5.70;0.80;;;;;;;8.86;94.61;100491.47;110638;1260;22195;-60
2023/10/09 10:38:32;;;;;;;6.50;1.00;;;;;;;8.86;94.46;100497.31;110698;1272;22901;-59
2023/10/09 10:41:17;;;;;;;5.40;0.70;;;;;;;8.86;94.51;100498.65;110652;1272;22132;-60
2023/10/09 10:43:54;;;;;;;4.70;0.70;;;;;;;8.87;94.54;100497.47;106550;1267;5428970;-60
2023/10/09 10:46:30;;;;;;;3.80;0.80;;;;;;;8.87;94.41;100492.64;110690;1260;23154;-63
2023/10/09 10:49:14;;;;;;;5.90;1.00;;;;;;;8.85;94.17;100498.63;110621;1272;22178;-58
2023/10/09 10:51:49;;;;;;;6.70;0.90;;;;;;;8.84;94.27;100496.75;110680;1272;22159;-58
2023/10/09 10:54:45;;;;;;;5.50;1.70;;;;;;;8.82;94.33;100500.00;110645;1272;22632;-60
2023/10/09 10:57:28;;;;;;;8.30;1.20;;;;;;;8.84;94.67;100498.50;110639;1269;22132;-61
2023/10/09 11:02:48;;;;;;;;;;;;;;;8.86;94.27;100484.98;110666;1272;22336;-60
2023/10/09 11:05:24;;;;;;;3.90;0.70;;;;;;;8.84;94.55;100477.48;110740;1272;22185;-60
2023/10/09 11:08:00;;;;;;;6.00;0.90;;;;;;;8.84;94.38;100482.44;110631;1273;22253;-59
2023/10/09 11:10:32;;;;;;;4.00;0.90;;;;;;;8.87;94.87;100484.05;110598;1273;23031;-60
2023/10/09 11:16:14;;;;;;;5.70;1.10;;;;;;;8.90;94.61;100475.27;110551;1273;22962;-60
2023/10/09 11:18:47;;;;;;;8.70;1.30;;;;;;;8.92;94.30;100472.64;110682;1272;22155;-59
2023/10/09 11:21:31;;;;;;;11.40;1.30;;;;;;;8.93;94.47;100475.46;110663;1272;22293;-59
2023/10/09 11:26:54;;;;;;;10.10;2.20;;;;;;;9.02;94.76;100476.67;110611;1273;23340;-60
2023/10/09 11:29:29;;;;;;;12.40;2.80;;;;;;;9.09;95.05;100481.44;110683;1269;23139;-60
2023/10/09 11:32:05;;;;;;;20.00;6.60;;;;;;;9.15;95.08;100480.86;110739;1272;22197;-60
2023/10/09 11:34:37;;;;;;;16.50;3.70;;;;;;;9.23;95.11;100471.05;110754;1272;22967;-59
2023/10/09 11:37:16;;;;;;;9.80;2.20;;;;;;;9.29;94.64;100464.13;110722;1272;22173;-60
2023/10/09 11:39:52;;;;;;;10.20;1.90;;;;;;;9.29;94.20;100461.19;110709;1272;22211;-60
2023/10/09 11:42:35;;;;;;;11.60;2.50;;;;;;;9.32;94.57;100457.18;110709;1272;22260;-60
2023/10/09 11:45:19;;;;;;;8.30;2.00;;;;;;;9.40;94.79;100452.32;110716;1272;22154;-59
2023/10/09 11:48:00;;;;;;;9.80;2.10;;;;;;;9.43;94.22;100452.71;110688;1272;22141;-60
2023/10/09 11:50:50;;;;;;;12.10;3.00;;;;;;;9.45;94.25;100448.00;110662;1272;22744;-59
2023/10/09 11:53:33;;;;;;;;;;;;;;;9.48;94.63;100448.59;110636;1273;22358;-60
2023/10/09 11:56:04;;;;;;;8.90;1.80;;;;;;;9.51;94.12;100452.15;110589;1273;22176;-59
2023/10/09 11:58:39;;;;;;;8.40;1.80;;;;;;;9.53;94.17;100455.67;110680;1272;22396;-61
2023/10/09 12:01:17;;;;;;;8.20;2.20;;;;;;;9.57;94.29;100452.88;110657;1273;22984;-61
2023/10/09 12:03:50;;;;;;;8.10;1.70;;;;;;;9.62;94.25;100450.52;110702;1269;22591;-60
2023/10/09 12:06:23;;;;;;;8.00;1.60;;;;;;;9.68;94.50;100439.70;110822;1268;22152;-61
2023/10/09 12:08:58;;;;;;;7.30;1.40;;;;;;;9.72;94.06;100439.52;110581;1273;22890;-60
2023/10/09 12:11:30;;;;;;;7.20;1.00;;;;;;;9.74;93.71;100446.98;110617;1273;22218;-59
2023/10/09 12:14:01;;;;;;;3.80;1.00;;;;;;;9.77;93.43;100448.47;108359;1272;22523;-61
2023/10/09 12:16:32;;;;;;;7.60;1.20;;;;;;;9.79;93.28;100452.90;106740;1272;22541;-59
2023/10/09 12:19:09;;;;;;;5.40;1.10;;;;;;;9.86;93.28;100455.48;106812;1272;24227;-60
2023/10/09 12:21:42;;;;;;;3.90;0.90;;;;;;;9.91;93.36;100450.34;110745;1272;22359;-60
2023/10/09 12:24:18;;;;;;;6.10;0.80;;;;;;;9.96;92.92;100450.52;110749;1272;22188;-60
2023/10/09 12:26:53;;;;;;;4.70;0.90;;;;;;;9.99;92.37;100452.44;110612;1272;22242;-61
2023/10/09 12:29:24;;;;;;;4.00;0.70;;;;;;;10.00;91.94;100454.41;110700;1272;22878;-61
2023/10/09 12:31:58;;;;;;;3.80;0.90;;;;;;;9.97;91.08;100449.38;110679;1272;22187;-58
2023/10/09 12:34:30;;;;;;;2.90;0.80;;;;;;;9.98;92.00;100449.19;110727;1272;22202;-59
2023/10/09 12:37:01;;;;;;;7.40;1.30;;;;;;;10.03;92.32;100449.33;110673;1272;22130;-59
2023/10/09 12:39:34;;;;;;;6.10;1.20;;;;;;;10.06;91.73;100442.18;110673;1272;22307;-61
2023/10/09 12:42:08;;;;;;;5.90;1.20;;;;;;;10.07;91.97;100434.77;110685;1272;22840;-60
2023/10/09 12:44:39;;;;;;;6.00;1.00;;;;;;;10.09;91.95;100431.83;110656;1272;22546;-62
2023/10/09 12:47:11;;;;;;;7.30;1.00;;;;;;;10.11;92.00;100428.85;110597;1273;22150;-60
2023/10/09 12:49:42;;;;;;;5.70;1.30;;;;;;;10.13;91.73;100427.99;110729;1272;22130;-61
2023/10/09 12:52:16;;;;;;;5.30;1.10;;;;;;;10.16;91.81;100422.13;110747;1272;22252;-63
2023/10/09 12:54:47;;;;;;;3.30;0.70;;;;;;;10.15;90.60;100417.38;110757;1272;22285;-58
2023/10/09 12:57:18;;;;;;;4.40;0.80;;;;;;;10.10;90.60;100418.94;110660;1272;22185;-60
2023/10/09 12:59:50;;;;;;;6.60;1.20;;;;;;;10.07;90.79;100421.85;110681;1272;22928;-61
2023/10/09 13:02:29;;;;;;;6.20;0.90;;;;;;;10.11;91.19;100417.33;110690;1272;22120;-59
2023/10/09 13:05:04;;;;;;;6.10;1.10;;;;;;;10.11;90.99;100411.36;110670;1272;22140;-61
2023/10/09 13:07:35;;;;;;;7.00;1.20;;;;;;;10.10;90.77;100413.21;110697;1272;22310;-60